sensor_id;sensor_type;location;lat;lon;timestamp;pressure;altitude;pressure_sealevel;temperature;humidity
63115;BME280;49208;50.874;6.466;2023-12-20T07:01:33;100552.13;;;4.78;100.00
63115;BME280;49208;50.874;6.466;2023-12-20T07:03:59;100543.28;;;4.80;100.00
63115;BME280;49208;50.874;6.466;2023-12-20T07:06:24;100552.97;;;4.78;100.00
63115;BME280;49208;50.874;6.466;2023-12-20T07:08:50;100551.22;;;4.79;100.00
63115;BME280;49208;50.874;6.466;2023-12-20T07:11:16;100548.56;;;4.80;100.00
63115;BME280;49208;50.874;6.466;2023-12-20T07:13:41;100545.91;;;4.82;100.00
63115;BME280;49208;50.874;6.466;2023-12-20T07:16:07;100548.56;;;4.82;100.00
63115;BME280;49208;50.874;6.466;2023-12-20T07:18:32;100552.91;;;4.84;100.00
63115;BME280;49208;50.874;6.466;2023-12-20T07:20:58;100543.28;;;4.82;100.00
63115;BME280;49208;50.874;6.466;2023-12-20T07:23:23;100538.00;;;4.82;100.00
63115;BME280;49208;50.874;6.466;2023-12-20T07:25:48;100545.00;;;4.84;100.00
63115;BME280;49208;50.874;6.466;2023-12-20T07:28:14;100558.19;;;4.86;100.00
63115;BME280;49208;50.874;6.466;2023-12-20T07:30:39;100550.28;;;4.86;100.00
63115;BME280;49208;50.874;6.466;2023-12-20T07:33:04;100549.41;;;4.84;100.00
63115;BME280;49208;50.874;6.466;2023-12-20T07:35:30;100554.63;;;4.87;100.00
63115;BME280;49208;50.874;6.466;2023-12-20T07:37:55;100540.59;;;4.85;100.00
63115;BME280;49208;50.874;6.466;2023-12-20T07:40:21;100542.41;;;4.80;100.00
63115;BME280;49208;50.874;6.466;2023-12-20T07:42:48;100547.75;;;4.74;100.00
63115;BME280;49208;50.874;6.466;2023-12-20T07:45:15;100538.13;;;4.71;100.00
63115;BME280;49208;50.874;6.466;2023-12-20T07:47:40;100554.81;;;4.73;100.00
63115;BME280;49208;50.874;6.466;2023-12-20T07:50:06;100542.47;;;4.74;100.00
63115;BME280;49208;50.874;6.466;2023-12-20T07:52:31;100547.66;;;4.81;100.00
63115;BME280;49208;50.874;6.466;2023-12-20T07:54:56;100552.09;;;4.79;100.00
63115;BME280;49208;50.874;6.466;2023-12-20T07:57:23;100546.84;;;4.78;100.00
63115;BME280;49208;50.874;6.466;2023-12-20T07:59:48;100538.97;;;4.73;100.00
63115;BME280;49208;50.874;6.466;2023-12-20T08:02:13;100533.72;;;4.72;100.00
63115;BME280;49208;50.874;6.466;2023-12-20T08:04:39;100532.06;;;4.61;100.00
63115;BME280;49208;50.874;6.466;2023-12-20T08:07:04;100532.94;;;4.60;100.00
63115;BME280;49208;50.874;6.466;2023-12-20T08:09:29;100541.75;;;4.58;100.00
63115;BME280;49208;50.874;6.466;2023-12-20T08:11:55;100538.25;;;4.57;100.00
63115;BME280;49208;50.874;6.466;2023-12-20T08:14:21;100546.16;;;4.56;100.00
63115;BME280;49208;50.874;6.466;2023-12-20T08:16:46;100544.38;;;4.58;100.00
63115;BME280;49208;50.874;6.466;2023-12-20T08:19:12;100557.50;;;4.67;100.00
63115;BME280;49208;50.874;6.466;2023-12-20T08:21:38;100541.63;;;4.70;100.00
63115;BME280;49208;50.874;6.466;2023-12-20T08:24:04;100538.09;;;4.73;100.00
63115;BME280;49208;50.874;6.466;2023-12-20T08:26:30;100538.94;;;4.76;100.00
63115;BME280;49208;50.874;6.466;2023-12-20T08:28:55;100546.84;;;4.79;100.00
63115;BME280;49208;50.874;6.466;2023-12-20T08:31:20;100544.09;;;4.85;100.00
63115;BME280;49208;50.874;6.466;2023-12-20T08:33:47;100537.91;;;4.90;100.00
63115;BME280;49208;50.874;6.466;2023-12-20T08:36:13;100539.59;;;4.97;100.00
63115;BME280;49208;50.874;6.466;2023-12-20T08:38:39;100548.38;;;5.00;100.00
63115;BME280;49208;50.874;6.466;2023-12-20T08:41:04;100544.81;;;5.03;100.00
63115;BME280;49208;50.874;6.466;2023-12-20T08:43:31;100538.59;;;5.07;100.00
63115;BME280;49208;50.874;6.466;2023-12-20T08:45:56;100550.88;;;5.08;100.00
63115;BME280;49208;50.874;6.466;2023-12-20T08:48:22;100542.97;;;5.08;100.00
63115;BME280;49208;50.874;6.466;2023-12-20T08:50:47;100560.53;;;5.12;100.00
63115;BME280;49208;50.874;6.466;2023-12-20T08:53:15;100559.59;;;5.18;100.00
63115;BME280;49208;50.874;6.466;2023-12-20T08:55:41;100558.72;;;5.19;100.00
63115;BME280;49208;50.874;6.466;2023-12-20T08:58:07;100552.56;;;5.17;100.00
63115;BME280;49208;50.874;6.466;2023-12-20T09:00:33;100564.84;;;5.19;100.00
63115;BME280;49208;50.874;6.466;2023-12-20T09:02:59;100561.34;;;5.19;100.00
63115;BME280;49208;50.874;6.466;2023-12-20T09:05:25;100560.44;;;5.18;100.00
63115;BME280;49208;50.874;6.466;2023-12-20T09:07:50;100560.44;;;5.20;100.00
63115;BME280;49208;50.874;6.466;2023-12-20T09:10:16;100564.78;;;5.25;100.00
63115;BME280;49208;50.874;6.466;2023-12-20T09:12:41;100559.38;;;5.33;100.00
63115;BME280;49208;50.874;6.466;2023-12-20T09:15:08;100561.16;;;5.33;100.00
63115;BME280;49208;50.874;6.466;2023-12-20T09:17:33;100552.38;;;5.34;100.00
63115;BME280;49208;50.874;6.466;2023-12-20T09:19:59;100555.03;;;5.32;100.00
63115;BME280;49208;50.874;6.466;2023-12-20T09:22:25;100546.19;;;5.33;100.00
63115;BME280;49208;50.874;6.466;2023-12-20T09:24:50;100560.22;;;5.37;100.00
63115;BME280;49208;50.874;6.466;2023-12-20T09:27:16;100551.50;;;5.32;100.00
63115;BME280;49208;50.874;6.466;2023-12-20T09:29:41;100549.72;;;5.34;100.00
63115;BME280;49208;50.874;6.466;2023-12-20T09:32:07;100548.75;;;5.41;100.00
63115;BME280;49208;50.874;6.466;2023-12-20T09:34:33;100544.25;;;5.49;100.00
63115;BME280;49208;50.874;6.466;2023-12-20T09:36:59;100533.66;;;5.51;100.00
63115;BME280;49208;50.874;6.466;2023-12-20T09:39:25;100542.44;;;5.54;100.00
63115;BME280;49208;50.874;6.466;2023-12-20T09:42:01;100538.81;;;5.60;100.00
63115;BME280;49208;50.874;6.466;2023-12-20T09:44:27;100551.06;;;5.64;100.00
63115;BME280;49208;50.874;6.466;2023-12-20T09:46:55;100560.78;;;5.62;100.00
63115;BME280;49208;50.874;6.466;2023-12-20T09:49:20;100549.41;;;5.58;100.00
63115;BME280;49208;50.874;6.466;2023-12-20T09:51:46;100546.72;;;5.60;100.00
63115;BME280;49208;50.874;6.466;2023-12-20T09:54:16;100555.25;;;5.80;100.00
63115;BME280;49208;50.874;6.466;2023-12-20T09:56:42;100550.66;;;5.96;100.00
63115;BME280;49208;50.874;6.466;2023-12-20T09:59:07;100555.00;;;6.02;100.00
63115;BME280;49208;50.874;6.466;2023-12-20T10:01:34;100555.78;;;6.05;100.00
63115;BME280;49208;50.874;6.466;2023-12-20T10:04:00;100557.59;;;6.03;100.00
63115;BME280;49208;50.874;6.466;2023-12-20T10:06:33;100557.66;;;5.99;100.00
63115;BME280;49208;50.874;6.466;2023-12-20T10:08:58;100548.94;;;5.92;100.00
63115;BME280;49208;50.874;6.466;2023-12-20T10:11:24;100551.66;;;5.86;100.00
63115;BME280;49208;50.874;6.466;2023-12-20T10:13:50;100546.47;;;5.80;100.00
63115;BME280;49208;50.874;6.466;2023-12-20T10:16:15;100540.34;;;5.75;100.00
63115;BME280;49208;50.874;6.466;2023-12-20T10:18:42;100537.72;;;5.75;100.00
63115;BME280;49208;50.874;6.466;2023-12-20T10:21:07;100531.56;;;5.73;100.00
63115;BME280;49208;50.874;6.466;2023-12-20T10:23:35;100520.16;;;5.71;100.00
63115;BME280;49208;50.874;6.466;2023-12-20T10:26:02;100523.72;;;5.70;100.00
63115;BME280;49208;50.874;6.466;2023-12-20T10:28:33;100529.84;;;5.72;100.00
63115;BME280;49208;50.874;6.466;2023-12-20T10:30:59;100528.06;;;5.74;100.00
63115;BME280;49208;50.874;6.466;2023-12-20T10:33:28;100523.66;;;5.74;100.00
63115;BME280;49208;50.874;6.466;2023-12-20T10:35:55;100524.50;;;5.75;100.00
63115;BME280;49208;50.874;6.466;2023-12-20T10:38:21;100514.84;;;5.75;100.00
63115;BME280;49208;50.874;6.466;2023-12-20T10:40:47;100510.41;;;5.77;100.00
63115;BME280;49208;50.874;6.466;2023-12-20T10:43:13;100509.41;;;5.83;100.00
63115;BME280;49208;50.874;6.466;2023-12-20T10:45:41;100496.19;;;5.86;100.00
63115;BME280;49208;50.874;6.466;2023-12-20T10:48:07;100500.53;;;5.90;100.00
63115;BME280;49208;50.874;6.466;2023-12-20T10:50:36;100497.88;;;5.92;100.00
63115;BME280;49208;50.874;6.466;2023-12-20T10:53:03;100509.28;;;5.95;100.00
63115;BME280;49208;50.874;6.466;2023-12-20T10:55:29;100498.69;;;5.97;100.00
63115;BME280;49208;50.874;6.466;2023-12-20T10:58:00;100502.25;;;5.96;100.00
63115;BME280;49208;50.874;6.466;2023-12-20T11:00:29;100508.41;;;5.95;100.00
63115;BME280;49208;50.874;6.466;2023-12-20T11:03:00;100512.81;;;5.91;100.00
63115;BME280;49208;50.874;6.466;2023-12-20T11:08:06;100521.72;;;5.85;100.00
63115;BME280;49208;50.874;6.466;2023-12-20T11:10:48;100534.13;;;5.80;100.00
63115;BME280;49208;50.874;6.466;2023-12-20T11:13:17;100526.22;;;5.79;100.00
63115;BME280;49208;50.874;6.466;2023-12-20T11:15:45;100527.97;;;5.80;100.00
63115;BME280;49208;50.874;6.466;2023-12-20T11:18:11;100538.53;;;5.80;100.00
63115;BME280;49208;50.874;6.466;2023-12-20T11:20:41;100525.34;;;5.80;100.00
63115;BME280;49208;50.874;6.466;2023-12-20T11:23:08;100527.91;;;5.83;100.00
63115;BME280;49208;50.874;6.466;2023-12-20T11:25:47;100512.06;;;5.84;100.00
63115;BME280;49208;50.874;6.466;2023-12-20T11:28:20;100507.63;;;5.86;100.00
63115;BME280;49208;50.874;6.466;2023-12-20T11:30:54;100495.25;;;5.88;100.00
63115;BME280;49208;50.874;6.466;2023-12-20T11:33:24;100489.03;;;5.93;100.00
63115;BME280;49208;50.874;6.466;2023-12-20T11:35:50;100492.47;;;6.01;100.00
63115;BME280;49208;50.874;6.466;2023-12-20T11:38:16;100487.06;;;6.09;100.00
63115;BME280;49208;50.874;6.466;2023-12-20T11:40:42;100493.94;;;6.19;100.00
63115;BME280;49208;50.874;6.466;2023-12-20T11:43:08;100478.81;;;6.27;100.00
63115;BME280;49208;50.874;6.466;2023-12-20T11:45:34;100479.56;;;6.34;100.00
63115;BME280;49208;50.874;6.466;2023-12-20T11:48:01;100483.91;;;6.38;100.00
63115;BME280;49208;50.874;6.466;2023-12-20T11:50:27;100485.63;;;6.39;100.00
63115;BME280;49208;50.874;6.466;2023-12-20T11:52:54;100477.59;;;6.45;100.00
63115;BME280;49208;50.874;6.466;2023-12-20T11:55:23;100498.00;;;6.37;100.00
63115;BME280;49208;50.874;6.466;2023-12-20T11:57:52;100487.53;;;6.31;100.00
63115;BME280;49208;50.874;6.466;2023-12-20T12:00:18;100484.06;;;6.28;100.00
63115;BME280;49208;50.874;6.466;2023-12-20T12:02:55;100478.81;;;6.27;100.00
63115;BME280;49208;50.874;6.466;2023-12-20T12:05:21;100475.34;;;6.23;100.00
63115;BME280;49208;50.874;6.466;2023-12-20T12:07:47;100467.34;;;6.26;100.00
63115;BME280;49208;50.874;6.466;2023-12-20T12:10:12;100470.06;;;6.22;100.00
63115;BME280;49208;50.874;6.466;2023-12-20T12:12:38;100463.91;;;6.23;100.00
63115;BME280;49208;50.874;6.466;2023-12-20T12:15:04;100461.28;;;6.21;100.00
63115;BME280;49208;50.874;6.466;2023-12-20T12:17:30;100462.22;;;6.19;100.00
63115;BME280;49208;50.874;6.466;2023-12-20T12:20:04;100464.84;;;6.19;100.00
63115;BME280;49208;50.874;6.466;2023-12-20T12:22:30;100457.03;;;6.13;100.00
63115;BME280;49208;50.874;6.466;2023-12-20T12:24:59;100442.06;;;6.12;100.00
63115;BME280;49208;50.874;6.466;2023-12-20T12:27:25;100456.22;;;6.09;100.00
63115;BME280;49208;50.874;6.466;2023-12-20T12:30:04;100441.28;;;6.08;100.00
63115;BME280;49208;50.874;6.466;2023-12-20T12:32:32;100446.59;;;6.05;100.00
63115;BME280;49208;50.874;6.466;2023-12-20T12:34:57;100442.22;;;6.04;100.00
63115;BME280;49208;50.874;6.466;2023-12-20T12:37:23;100451.00;;;6.04;100.00
63115;BME280;49208;50.874;6.466;2023-12-20T12:39:54;100450.16;;;6.02;100.00
63115;BME280;49208;50.874;6.466;2023-12-20T12:42:20;100440.47;;;6.01;100.00
63115;BME280;49208;50.874;6.466;2023-12-20T12:44:46;100435.19;;;6.01;100.00
63115;BME280;49208;50.874;6.466;2023-12-20T12:47:12;100430.75;;;6.03;100.00
63115;BME280;49208;50.874;6.466;2023-12-20T12:49:37;100428.06;;;6.08;100.00
63115;BME280;49208;50.874;6.466;2023-12-20T12:52:03;100421.84;;;6.09;100.00
63115;BME280;49208;50.874;6.466;2023-12-20T12:54:28;100406.84;;;6.11;100.00
63115;BME280;49208;50.874;6.466;2023-12-20T12:56:53;100413.91;;;6.11;100.00
63115;BME280;49208;50.874;6.466;2023-12-20T12:59:19;100410.34;;;6.12;100.00
63115;BME280;49208;50.874;6.466;2023-12-20T13:01:44;100416.56;;;6.11;100.00
63115;BME280;49208;50.874;6.466;2023-12-20T13:04:10;100424.47;;;6.12;100.00
63115;BME280;49208;50.874;6.466;2023-12-20T13:06:39;100428.91;;;6.10;100.00
63115;BME280;49208;50.874;6.466;2023-12-20T13:09:06;100418.34;;;6.09;100.00
63115;BME280;49208;50.874;6.466;2023-12-20T13:11:32;100417.41;;;6.13;100.00
63115;BME280;49208;50.874;6.466;2023-12-20T13:13:57;100412.03;;;6.16;100.00
63115;BME280;49208;50.874;6.466;2023-12-20T13:16:23;100415.50;;;6.19;100.00
63115;BME280;49208;50.874;6.466;2023-12-20T13:18:50;100405.75;;;6.23;100.00
63115;BME280;49208;50.874;6.466;2023-12-20T13:21:15;100395.22;;;6.21;100.00
63115;BME280;49208;50.874;6.466;2023-12-20T13:23:42;100391.63;;;6.24;100.00
63115;BME280;49208;50.874;6.466;2023-12-20T13:26:07;100387.25;;;6.23;100.00
63115;BME280;49208;50.874;6.466;2023-12-20T13:28:33;100370.38;;;6.30;100.00
63115;BME280;49208;50.874;6.466;2023-12-20T13:30:58;100374.72;;;6.33;100.00
63115;BME280;49208;50.874;6.466;2023-12-20T13:33:23;100369.31;;;6.39;100.00
63115;BME280;49208;50.874;6.466;2023-12-20T13:35:49;100372.78;;;6.41;100.00
63115;BME280;49208;50.874;6.466;2023-12-20T13:38:14;100363.00;;;6.47;100.00
63115;BME280;49208;50.874;6.466;2023-12-20T13:40:40;100356.59;;;6.58;100.00
63115;BME280;49208;50.874;6.466;2023-12-20T13:43:05;100364.38;;;6.65;100.00
63115;BME280;49208;50.874;6.466;2023-12-20T13:45:31;100359.19;;;6.61;100.00
63115;BME280;49208;50.874;6.466;2023-12-20T13:47:56;100358.31;;;6.60;100.00
63115;BME280;49208;50.874;6.466;2023-12-20T13:50:22;100354.84;;;6.58;100.00
63115;BME280;49208;50.874;6.466;2023-12-20T13:52:47;100357.53;;;6.55;100.00
63115;BME280;49208;50.874;6.466;2023-12-20T13:55:13;100344.31;;;6.55;100.00
63115;BME280;49208;50.874;6.466;2023-12-20T13:57:38;100347.03;;;6.52;100.00
63115;BME280;49208;50.874;6.466;2023-12-20T14:00:05;100341.88;;;6.46;100.00
63115;BME280;49208;50.874;6.466;2023-12-20T14:02:31;100329.59;;;6.43;100.00
63115;BME280;49208;50.874;6.466;2023-12-20T14:04:56;100327.84;;;6.41;100.00
63115;BME280;49208;50.874;6.466;2023-12-20T14:07:21;100321.66;;;6.43;100.00
63115;BME280;49208;50.874;6.466;2023-12-20T14:09:47;100334.81;;;6.45;100.00
63115;BME280;49208;50.874;6.466;2023-12-20T14:12:13;100334.88;;;6.43;100.00
63115;BME280;49208;50.874;6.466;2023-12-20T14:14:38;100339.19;;;6.47;100.00
63115;BME280;49208;50.874;6.466;2023-12-20T14:17:03;100325.91;;;6.49;100.00
63115;BME280;49208;50.874;6.466;2023-12-20T14:19:34;100323.34;;;6.47;100.00
63115;BME280;49208;50.874;6.466;2023-12-20T14:21:59;100321.56;;;6.48;100.00
63115;BME280;49208;50.874;6.466;2023-12-20T14:24:27;100316.25;;;6.50;100.00
63115;BME280;49208;50.874;6.466;2023-12-20T14:26:52;100319.78;;;6.48;100.00
63115;BME280;49208;50.874;6.466;2023-12-20T14:29:18;100318.91;;;6.48;100.00
63115;BME280;49208;50.874;6.466;2023-12-20T14:31:43;100317.09;;;6.52;100.00
63115;BME280;49208;50.874;6.466;2023-12-20T14:34:09;100309.09;;;6.53;100.00
63115;BME280;49208;50.874;6.466;2023-12-20T14:36:34;100310.94;;;6.50;100.00
63115;BME280;49208;50.874;6.466;2023-12-20T14:39:01;100314.47;;;6.48;100.00
63115;BME280;49208;50.874;6.466;2023-12-20T14:41:28;100320.72;;;6.46;100.00
63115;BME280;49208;50.874;6.466;2023-12-20T14:43:53;100311.09;;;6.42;100.00
63115;BME280;49208;50.874;6.466;2023-12-20T14:46:19;100313.78;;;6.40;100.00
63115;BME280;49208;50.874;6.466;2023-12-20T14:48:45;100313.84;;;6.37;100.00
63115;BME280;49208;50.874;6.466;2023-12-20T14:51:10;100325.31;;;6.36;100.00
63115;BME280;49208;50.874;6.466;2023-12-20T14:53:37;100314.81;;;6.33;100.00
63115;BME280;49208;50.874;6.466;2023-12-20T14:56:06;100320.09;;;6.33;100.00
63115;BME280;49208;50.874;6.466;2023-12-20T14:58:31;100320.09;;;6.33;100.00
63115;BME280;49208;50.874;6.466;2023-12-20T15:00:57;100321.81;;;6.34;100.00
63115;BME280;49208;50.874;6.466;2023-12-20T15:03:23;100325.38;;;6.33;100.00
63115;BME280;49208;50.874;6.466;2023-12-20T15:05:48;100306.06;;;6.30;100.00
63115;BME280;49208;50.874;6.466;2023-12-20T15:08:14;100317.63;;;6.24;100.00
63115;BME280;49208;50.874;6.466;2023-12-20T15:10:39;100316.75;;;6.25;100.00
63115;BME280;49208;50.874;6.466;2023-12-20T15:13:04;100315.84;;;6.24;100.00
63115;BME280;49208;50.874;6.466;2023-12-20T15:15:31;100315.84;;;6.24;100.00
63115;BME280;49208;50.874;6.466;2023-12-20T15:17:58;100316.75;;;6.23;100.00
63115;BME280;49208;50.874;6.466;2023-12-20T15:20:24;100312.34;;;6.22;100.00
63115;BME280;49208;50.874;6.466;2023-12-20T15:22:49;100304.41;;;6.24;100.00
63115;BME280;49208;50.874;6.466;2023-12-20T15:25:14;100301.78;;;6.22;100.00
63115;BME280;49208;50.874;6.466;2023-12-20T15:27:46;100306.28;;;6.19;100.00
63115;BME280;49208;50.874;6.466;2023-12-20T15:30:14;100318.59;;;6.18;100.00
63115;BME280;49208;50.874;6.466;2023-12-20T15:32:39;100311.72;;;6.11;100.00
63115;BME280;49208;50.874;6.466;2023-12-20T15:35:05;100322.34;;;6.08;100.00
63115;BME280;49208;50.874;6.466;2023-12-20T15:37:31;100334.75;;;6.04;100.00
63115;BME280;49208;50.874;6.466;2023-12-20T15:39:56;100331.19;;;6.05;100.00
63115;BME280;49208;50.874;6.466;2023-12-20T15:42:21;100321.56;;;6.03;100.00
63115;BME280;49208;50.874;6.466;2023-12-20T15:44:47;100317.13;;;6.05;100.00
63115;BME280;49208;50.874;6.466;2023-12-20T15:47:12;100308.31;;;6.04;100.00
63115;BME280;49208;50.874;6.466;2023-12-20T15:49:37;100301.25;;;6.05;100.00
63115;BME280;49208;50.874;6.466;2023-12-20T15:52:03;100308.34;;;6.03;100.00
63115;BME280;49208;50.874;6.466;2023-12-20T15:54:29;100303.97;;;6.02;100.00
63115;BME280;49208;50.874;6.466;2023-12-20T15:56:54;100296.84;;;6.05;100.00
63115;BME280;49208;50.874;6.466;2023-12-20T15:59:19;100295.97;;;6.05;100.00
63115;BME280;49208;50.874;6.466;2023-12-20T16:01:45;100287.19;;;6.04;100.00
63115;BME280;49208;50.874;6.466;2023-12-20T16:04:10;100288.88;;;6.09;100.00
63115;BME280;49208;50.874;6.466;2023-12-20T16:06:35;100290.66;;;6.06;100.00
63115;BME280;49208;50.874;6.466;2023-12-20T16:09:02;100298.63;;;6.03;100.00
63115;BME280;49208;50.874;6.466;2023-12-20T16:11:27;100287.22;;;6.01;100.00
63115;BME280;49208;50.874;6.466;2023-12-20T16:13:53;100284.66;;;6.00;100.00
63115;BME280;49208;50.874;6.466;2023-12-20T16:16:18;100281.94;;;6.01;100.00
63115;BME280;49208;50.874;6.466;2023-12-20T16:18:44;100287.22;;;6.03;100.00
63115;BME280;49208;50.874;6.466;2023-12-20T16:21:09;100281.03;;;6.04;100.00
63115;BME280;49208;50.874;6.466;2023-12-20T16:23:34;100284.47;;;6.07;100.00
63115;BME280;49208;50.874;6.466;2023-12-20T16:26:01;100280.03;;;6.10;100.00
63115;BME280;49208;50.874;6.466;2023-12-20T16:28:26;100282.66;;;6.10;100.00
63115;BME280;49208;50.874;6.466;2023-12-20T16:30:52;100282.66;;;6.11;100.00
63115;BME280;49208;50.874;6.466;2023-12-20T16:33:21;100282.66;;;6.11;100.00
63115;BME280;49208;50.874;6.466;2023-12-20T16:35:46;100266.81;;;6.10;100.00
63115;BME280;49208;50.874;6.466;2023-12-20T16:38:12;100274.75;;;6.10;100.00
63115;BME280;49208;50.874;6.466;2023-12-20T16:40:37;100263.28;;;6.11;100.00
63115;BME280;49208;50.874;6.466;2023-12-20T16:43:02;100267.59;;;6.15;100.00
63115;BME280;49208;50.874;6.466;2023-12-20T16:45:28;100265.81;;;6.15;100.00
63115;BME280;49208;50.874;6.466;2023-12-20T16:47:54;100260.53;;;6.17;100.00
63115;BME280;49208;50.874;6.466;2023-12-20T16:50:19;100255.19;;;6.18;100.00
63115;BME280;49208;50.874;6.466;2023-12-20T16:52:44;100269.22;;;6.20;100.00
63115;BME280;49208;50.874;6.466;2023-12-20T16:55:15;100258.63;;;6.23;100.00
63115;BME280;49208;50.874;6.466;2023-12-20T16:57:40;100254.16;;;6.27;100.00
63115;BME280;49208;50.874;6.466;2023-12-20T17:00:06;100246.16;;;6.28;100.00
63115;BME280;49208;50.874;6.466;2023-12-20T17:02:32;100239.03;;;6.32;100.00
63115;BME280;49208;50.874;6.466;2023-12-20T17:04:58;100231.09;;;6.34;100.00
63115;BME280;49208;50.874;6.466;2023-12-20T17:07:23;100231.91;;;6.36;100.00
63115;BME280;49208;50.874;6.466;2023-12-20T17:09:50;100228.34;;;6.37;100.00
63115;BME280;49208;50.874;6.466;2023-12-20T17:12:16;100235.38;;;6.39;100.00
63115;BME280;49208;50.874;6.466;2023-12-20T17:14:41;100237.09;;;6.40;100.00
63115;BME280;49208;50.874;6.466;2023-12-20T17:17:06;100230.03;;;6.41;100.00
63115;BME280;49208;50.874;6.466;2023-12-20T17:19:33;100235.28;;;6.42;100.00
63115;BME280;49208;50.874;6.466;2023-12-20T17:21:59;100235.25;;;6.45;100.00
63115;BME280;49208;50.874;6.466;2023-12-20T17:24:24;100237.81;;;6.47;100.00
63115;BME280;49208;50.874;6.466;2023-12-20T17:26:50;100226.34;;;6.50;100.00
63115;BME280;49208;50.874;6.466;2023-12-20T17:29:15;100226.22;;;6.54;100.00
63115;BME280;49208;50.874;6.466;2023-12-20T17:31:41;100228.75;;;6.59;100.00
63115;BME280;49208;50.874;6.466;2023-12-20T17:34:08;100221.66;;;6.61;100.00
63115;BME280;49208;50.874;6.466;2023-12-20T17:36:36;100219.84;;;6.63;100.00
63115;BME280;49208;50.874;6.466;2023-12-20T17:39:02;100211.78;;;6.69;100.00
63115;BME280;49208;50.874;6.466;2023-12-20T17:41:27;100205.47;;;6.75;100.00
63115;BME280;49208;50.874;6.466;2023-12-20T17:43:52;100214.28;;;6.75;100.00
63115;BME280;49208;50.874;6.466;2023-12-20T17:46:18;100207.19;;;6.77;100.00
63115;BME280;49208;50.874;6.466;2023-12-20T17:48:43;100196.59;;;6.77;100.00
63115;BME280;49208;50.874;6.466;2023-12-20T17:51:08;100189.53;;;6.78;100.00
63115;BME280;49208;50.874;6.466;2023-12-20T17:53:34;100196.56;;;6.79;100.00
63115;BME280;49208;50.874;6.466;2023-12-20T17:55:59;100185.06;;;6.80;100.00
63115;BME280;49208;50.874;6.466;2023-12-20T17:58:24;100177.16;;;6.78;100.00
63115;BME280;49208;50.874;6.466;2023-12-20T18:00:50;100178.09;;;6.77;100.00
63115;BME280;49208;50.874;6.466;2023-12-20T18:03:15;100168.34;;;6.79;100.00
63115;BME280;49208;50.874;6.466;2023-12-20T18:05:41;100170.88;;;6.82;100.00
63115;BME280;49208;50.874;6.466;2023-12-20T18:08:06;100172.56;;;6.86;100.00
63115;BME280;49208;50.874;6.466;2023-12-20T18:10:31;100168.06;;;6.90;100.00
63115;BME280;49208;50.874;6.466;2023-12-20T18:12:57;100160.91;;;6.94;100.00
63115;BME280;49208;50.874;6.466;2023-12-20T18:15:22;100154.69;;;6.96;100.00
63115;BME280;49208;50.874;6.466;2023-12-20T18:17:47;100158.16;;;6.98;100.00
63115;BME280;49208;50.874;6.466;2023-12-20T18:20:13;100149.25;;;7.01;100.00
63115;BME280;49208;50.874;6.466;2023-12-20T18:22:39;100158.78;;;7.08;100.00
63115;BME280;49208;50.874;6.466;2023-12-20T18:25:07;100152.69;;;7.06;100.00
63115;BME280;49208;50.874;6.466;2023-12-20T18:27:32;100155.25;;;7.07;100.00
63115;BME280;49208;50.874;6.466;2023-12-20T18:29:58;100147.38;;;7.06;100.00
63115;BME280;49208;50.874;6.466;2023-12-20T18:32:30;100147.22;;;7.12;100.00
63115;BME280;49208;50.874;6.466;2023-12-20T18:34:55;100139.28;;;7.12;100.00
63115;BME280;49208;50.874;6.466;2023-12-20T18:37:21;100126.91;;;7.13;100.00
63115;BME280;49208;50.874;6.466;2023-12-20T18:39:46;100136.63;;;7.12;100.00
63115;BME280;49208;50.874;6.466;2023-12-20T18:42:13;100130.41;;;7.13;100.00
63115;BME280;49208;50.874;6.466;2023-12-20T18:44:38;100117.31;;;7.08;100.00
63115;BME280;49208;50.874;6.466;2023-12-20T18:47:04;100128.78;;;7.07;100.00
63115;BME280;49208;50.874;6.466;2023-12-20T18:49:30;100113.88;;;7.05;100.00
63115;BME280;49208;50.874;6.466;2023-12-20T18:51:55;100122.66;;;7.05;100.00
63115;BME280;49208;50.874;6.466;2023-12-20T18:54:21;100114.72;;;7.05;100.00
63115;BME280;49208;50.874;6.466;2023-12-20T18:56:47;100123.50;;;7.07;100.00
63115;BME280;49208;50.874;6.466;2023-12-20T18:59:14;100119.09;;;7.08;100.00
63115;BME280;49208;50.874;6.466;2023-12-20T19:01:42;100118.19;;;7.07;100.00
63115;BME280;49208;50.874;6.466;2023-12-20T19:04:08;100106.63;;;7.12;100.00
63115;BME280;49208;50.874;6.466;2023-12-20T19:06:33;100101.41;;;7.10;100.00
63115;BME280;49208;50.874;6.466;2023-12-20T19:08:58;100099.66;;;7.09;100.00
63115;BME280;49208;50.874;6.466;2023-12-20T19:11:24;100100.47;;;7.11;100.00
63115;BME280;49208;50.874;6.466;2023-12-20T19:13:49;100104.03;;;7.10;100.00
63115;BME280;49208;50.874;6.466;2023-12-20T19:16:15;100096.13;;;7.08;100.00
63115;BME280;49208;50.874;6.466;2023-12-20T19:18:40;100095.34;;;7.05;100.00
63115;BME280;49208;50.874;6.466;2023-12-20T19:21:07;100088.34;;;7.04;100.00
63115;BME280;49208;50.874;6.466;2023-12-20T19:23:34;100084.75;;;7.05;100.00
63115;BME280;49208;50.874;6.466;2023-12-20T19:25:59;100071.50;;;7.06;100.00
63115;BME280;49208;50.874;6.466;2023-12-20T19:28:29;100096.88;;;7.14;100.00
63115;BME280;49208;50.874;6.466;2023-12-20T19:30:54;100080.09;;;7.15;100.00
63115;BME280;49208;50.874;6.466;2023-12-20T19:33:21;100067.66;;;7.18;100.00
63115;BME280;49208;50.874;6.466;2023-12-20T19:35:47;100067.69;;;7.17;100.00
63115;BME280;49208;50.874;6.466;2023-12-20T19:38:12;100053.59;;;7.16;100.00
63115;BME280;49208;50.874;6.466;2023-12-20T19:40:37;100053.63;;;7.15;100.00
63115;BME280;49208;50.874;6.466;2023-12-20T19:43:03;100064.22;;;7.15;100.00
63115;BME280;49208;50.874;6.466;2023-12-20T19:45:33;100053.66;;;7.13;100.00
63115;BME280;49208;50.874;6.466;2023-12-20T19:47:58;100051.84;;;7.15;100.00